sensor_id;sensor_type;location;lat;lon;timestamp;pressure;altitude;pressure_sealevel;temperature;humidity
17593;BME280;8915;51.760;14.300;2023-06-10T00:01:13;100862.00;;;17.59;63.93
17593;BME280;8915;51.760;14.300;2023-06-10T00:03:41;100861.56;;;17.57;65.32
17593;BME280;8915;51.760;14.300;2023-06-10T00:06:08;100858.50;;;17.55;65.48
17593;BME280;8915;51.760;14.300;2023-06-10T00:08:35;100858.50;;;17.55;65.85
17593;BME280;8915;51.760;14.300;2023-06-10T00:11:04;100855.81;;;17.51;65.04
17593;BME280;8915;51.760;14.300;2023-06-10T00:13:31;100858.41;;;17.48;64.56
17593;BME280;8915;51.760;14.300;2023-06-10T00:15:57;100865.28;;;17.45;65.60
17593;BME280;8915;51.760;14.300;2023-06-10T00:18:24;100852.66;;;17.42;65.02
17593;BME280;8915;51.760;14.300;2023-06-10T00:20:53;100859.84;;;17.38;66.33
17593;BME280;8915;51.760;14.300;2023-06-10T00:23:20;100854.81;;;17.37;66.40
17593;BME280;8915;51.760;14.300;2023-06-10T00:25:46;100859.38;;;17.33;66.07
17593;BME280;8915;51.760;14.300;2023-06-10T00:28:13;100862.75;;;17.30;67.20
17593;BME280;8915;51.760;14.300;2023-06-10T00:30:39;100852.78;;;17.27;66.50
17593;BME280;8915;51.760;14.300;2023-06-10T00:33:09;100862.28;;;17.24;66.98
17593;BME280;8915;51.760;14.300;2023-06-10T00:35:36;100851.94;;;17.19;67.06
17593;BME280;8915;51.760;14.300;2023-06-10T00:38:05;100845.81;;;17.15;67.11
17593;BME280;8915;51.760;14.300;2023-06-10T00:40:33;100851.84;;;17.12;67.57
17593;BME280;8915;51.760;14.300;2023-06-10T00:42:59;100843.03;;;17.08;67.40
17593;BME280;8915;51.760;14.300;2023-06-10T00:45:26;100851.78;;;17.05;66.60
17593;BME280;8915;51.760;14.300;2023-06-10T00:47:52;100846.41;;;17.02;68.56
17593;BME280;8915;51.760;14.300;2023-06-10T00:50:18;100857.78;;;16.99;68.56
17593;BME280;8915;51.760;14.300;2023-06-10T00:52:45;100856.59;;;16.96;68.75
17593;BME280;8915;51.760;14.300;2023-06-10T00:55:16;100852.38;;;16.92;67.13
17593;BME280;8915;51.760;14.300;2023-06-10T00:57:44;100862.59;;;16.90;69.08
17593;BME280;8915;51.760;14.300;2023-06-10T01:00:12;100853.81;;;16.86;69.18
17593;BME280;8915;51.760;14.300;2023-06-10T01:02:38;100862.53;;;16.83;68.20
17593;BME280;8915;51.760;14.300;2023-06-10T01:05:05;100862.47;;;16.79;68.91
17593;BME280;8915;51.760;14.300;2023-06-10T01:07:37;100867.38;;;16.77;69.84
17593;BME280;8915;51.760;14.300;2023-06-10T01:10:11;100855.91;;;16.73;68.69
17593;BME280;8915;51.760;14.300;2023-06-10T01:12:41;100868.06;;;16.71;69.62
17593;BME280;8915;51.760;14.300;2023-06-10T01:15:14;100866.88;;;16.68;70.21
17593;BME280;8915;51.760;14.300;2023-06-10T01:17:54;100871.78;;;16.66;69.24
17593;BME280;8915;51.760;14.300;2023-06-10T01:20:20;100867.19;;;16.63;69.14
17593;BME280;8915;51.760;14.300;2023-06-10T01:22:48;100869.44;;;16.61;68.51
17593;BME280;8915;51.760;14.300;2023-06-10T01:25:14;100860.25;;;16.59;69.68
17593;BME280;8915;51.760;14.300;2023-06-10T01:27:42;100860.19;;;16.55;69.67
17593;BME280;8915;51.760;14.300;2023-06-10T01:30:14;100865.13;;;16.53;70.44
17593;BME280;8915;51.760;14.300;2023-06-10T01:32:45;100864.31;;;16.49;70.49
17593;BME280;8915;51.760;14.300;2023-06-10T01:35:15;100863.13;;;16.47;70.04
17593;BME280;8915;51.760;14.300;2023-06-10T01:37:43;100865.72;;;16.43;69.97
17593;BME280;8915;51.760;14.300;2023-06-10T01:40:16;100863.78;;;16.40;69.92
17593;BME280;8915;51.760;14.300;2023-06-10T01:42:42;100874.00;;;16.38;69.53
17593;BME280;8915;51.760;14.300;2023-06-10T01:45:09;100871.28;;;16.35;70.86
17593;BME280;8915;51.760;14.300;2023-06-10T01:47:36;100874.66;;;16.32;71.08
17593;BME280;8915;51.760;14.300;2023-06-10T01:50:03;100894.00;;;16.29;70.26
17593;BME280;8915;51.760;14.300;2023-06-10T01:52:29;100897.41;;;16.26;70.59
17593;BME280;8915;51.760;14.300;2023-06-10T01:54:56;100902.66;;;16.22;70.27
17593;BME280;8915;51.760;14.300;2023-06-10T01:57:23;100906.03;;;16.19;71.31
17593;BME280;8915;51.760;14.300;2023-06-10T01:59:50;100905.56;;;16.14;70.98
17593;BME280;8915;51.760;14.300;2023-06-10T02:02:16;100908.16;;;16.10;71.11
17593;BME280;8915;51.760;14.300;2023-06-10T02:04:42;100912.28;;;16.08;71.42
17593;BME280;8915;51.760;14.300;2023-06-10T02:07:09;100905.38;;;16.03;71.60
17593;BME280;8915;51.760;14.300;2023-06-10T02:09:37;100912.16;;;16.01;71.56
17593;BME280;8915;51.760;14.300;2023-06-10T02:12:04;100918.56;;;15.96;71.89
17593;BME280;8915;51.760;14.300;2023-06-10T02:14:32;100919.59;;;15.92;71.88
17593;BME280;8915;51.760;14.300;2023-06-10T02:16:59;100910.38;;;15.86;72.41
17593;BME280;8915;51.760;14.300;2023-06-10T02:19:25;100918.63;;;15.81;72.21
17593;BME280;8915;51.760;14.300;2023-06-10T02:21:53;100921.25;;;15.77;72.73
17593;BME280;8915;51.760;14.300;2023-06-10T02:24:19;100913.88;;;15.71;72.63
17593;BME280;8915;51.760;14.300;2023-06-10T02:26:46;100918.34;;;15.67;72.60
17593;BME280;8915;51.760;14.300;2023-06-10T02:29:13;100913.34;;;15.62;72.65
17593;BME280;8915;51.760;14.300;2023-06-10T02:31:40;100914.72;;;15.56;72.84
17593;BME280;8915;51.760;14.300;2023-06-10T02:34:07;100928.41;;;15.54;72.38
17593;BME280;8915;51.760;14.300;2023-06-10T02:36:34;100925.63;;;15.51;73.16
17593;BME280;8915;51.760;14.300;2023-06-10T02:39:03;100924.38;;;15.45;73.13
17593;BME280;8915;51.760;14.300;2023-06-10T02:41:29;100922.78;;;15.40;73.90
17593;BME280;8915;51.760;14.300;2023-06-10T02:43:57;100933.34;;;15.37;73.97
17593;BME280;8915;51.760;14.300;2023-06-10T02:46:24;100923.69;;;15.32;73.48
17593;BME280;8915;51.760;14.300;2023-06-10T02:48:53;100927.41;;;15.28;73.52
17593;BME280;8915;51.760;14.300;2023-06-10T02:51:23;100924.69;;;15.24;73.52
17593;BME280;8915;51.760;14.300;2023-06-10T02:53:55;100919.28;;;15.21;74.00
17593;BME280;8915;51.760;14.300;2023-06-10T02:56:22;100925.28;;;15.18;74.31
17593;BME280;8915;51.760;14.300;2023-06-10T02:58:49;100932.41;;;15.14;73.95
17593;BME280;8915;51.760;14.300;2023-06-10T03:01:18;100929.69;;;15.10;74.60
17593;BME280;8915;51.760;14.300;2023-06-10T03:03:54;100928.81;;;15.06;74.62
17593;BME280;8915;51.760;14.300;2023-06-10T03:06:21;100935.28;;;15.05;75.07
17593;BME280;8915;51.760;14.300;2023-06-10T03:08:49;100931.75;;;15.01;74.82
17593;BME280;8915;51.760;14.300;2023-06-10T03:11:18;100943.09;;;14.98;75.18
17593;BME280;8915;51.760;14.300;2023-06-10T03:13:46;100937.72;;;14.95;74.99
17593;BME280;8915;51.760;14.300;2023-06-10T03:16:15;100932.72;;;14.93;74.52
17593;BME280;8915;51.760;14.300;2023-06-10T03:18:43;100934.94;;;14.91;75.39
17593;BME280;8915;51.760;14.300;2023-06-10T03:21:11;100939.50;;;14.91;74.96
17593;BME280;8915;51.760;14.300;2023-06-10T03:23:38;100930.75;;;14.90;74.76
17593;BME280;8915;51.760;14.300;2023-06-10T03:26:05;100934.94;;;14.91;75.35
17593;BME280;8915;51.760;14.300;2023-06-10T03:28:33;100938.81;;;14.94;75.38
17593;BME280;8915;51.760;14.300;2023-06-10T03:30:59;100941.47;;;14.94;75.37
17593;BME280;8915;51.760;14.300;2023-06-10T03:33:28;100942.66;;;14.96;75.67
17593;BME280;8915;51.760;14.300;2023-06-10T03:35:55;100945.75;;;14.98;75.96
17593;BME280;8915;51.760;14.300;2023-06-10T03:38:24;100939.72;;;15.01;76.30
17593;BME280;8915;51.760;14.300;2023-06-10T03:40:52;100937.50;;;15.03;76.10
17593;BME280;8915;51.760;14.300;2023-06-10T03:43:19;100940.25;;;15.07;76.12
17593;BME280;8915;51.760;14.300;2023-06-10T03:45:48;100949.09;;;15.11;76.02
17593;BME280;8915;51.760;14.300;2023-06-10T03:48:14;100952.56;;;15.15;75.57
17593;BME280;8915;51.760;14.300;2023-06-10T03:50:46;100955.34;;;15.18;76.04
17593;BME280;8915;51.760;14.300;2023-06-10T03:53:16;100963.81;;;15.24;76.15
17593;BME280;8915;51.760;14.300;2023-06-10T03:55:44;100960.47;;;15.27;75.62
17593;BME280;8915;51.760;14.300;2023-06-10T03:58:11;100963.63;;;15.32;75.99
17593;BME280;8915;51.760;14.300;2023-06-10T04:00:41;100969.47;;;15.38;75.91
17593;BME280;8915;51.760;14.300;2023-06-10T04:03:08;100960.78;;;15.41;75.18
17593;BME280;8915;51.760;14.300;2023-06-10T04:05:42;100958.28;;;15.48;75.43
17593;BME280;8915;51.760;14.300;2023-06-10T04:08:08;100961.88;;;15.55;74.79
17593;BME280;8915;51.760;14.300;2023-06-10T04:10:35;100962.34;;;15.61;74.95
17593;BME280;8915;51.760;14.300;2023-06-10T04:13:03;100967.06;;;15.67;73.13
17593;BME280;8915;51.760;14.300;2023-06-10T04:15:34;100968.75;;;15.75;73.65
17593;BME280;8915;51.760;14.300;2023-06-10T04:18:06;100970.41;;;15.83;74.58
17593;BME280;8915;51.760;14.300;2023-06-10T04:20:33;100983.19;;;15.93;74.38
17593;BME280;8915;51.760;14.300;2023-06-10T04:23:00;100973.09;;;16.02;74.36
17593;BME280;8915;51.760;14.300;2023-06-10T04:25:27;100978.19;;;16.11;74.70
17593;BME280;8915;51.760;14.300;2023-06-10T04:27:54;100989.41;;;16.20;73.79
17593;BME280;8915;51.760;14.300;2023-06-10T04:30:22;100982.72;;;16.29;73.72
17593;BME280;8915;51.760;14.300;2023-06-10T04:32:49;100980.97;;;16.37;72.92
17593;BME280;8915;51.760;14.300;2023-06-10T04:35:17;100977.41;;;16.48;72.93
17593;BME280;8915;51.760;14.300;2023-06-10T04:37:45;100974.50;;;16.57;71.85
17593;BME280;8915;51.760;14.300;2023-06-10T04:40:12;100978.88;;;16.68;72.45
17593;BME280;8915;51.760;14.300;2023-06-10T04:42:39;100979.03;;;16.79;72.71
17593;BME280;8915;51.760;14.300;2023-06-10T04:45:10;100983.00;;;16.88;72.65
17593;BME280;8915;51.760;14.300;2023-06-10T04:47:38;100980.84;;;16.97;72.48
17593;BME280;8915;51.760;14.300;2023-06-10T04:50:06;100980.59;;;17.06;72.42
17593;BME280;8915;51.760;14.300;2023-06-10T04:52:32;100984.97;;;17.17;72.58
17593;BME280;8915;51.760;14.300;2023-06-10T04:54:59;100983.19;;;17.25;72.12
17593;BME280;8915;51.760;14.300;2023-06-10T04:57:25;100990.94;;;17.33;70.60
17593;BME280;8915;51.760;14.300;2023-06-10T04:59:52;100994.94;;;17.43;70.12
17593;BME280;8915;51.760;14.300;2023-06-10T05:02:19;100993.16;;;17.54;70.75
17593;BME280;8915;51.760;14.300;2023-06-10T05:04:49;100991.41;;;17.65;70.33
17593;BME280;8915;51.760;14.300;2023-06-10T05:07:15;100998.78;;;17.75;69.96
17593;BME280;8915;51.760;14.300;2023-06-10T05:09:41;100997.75;;;17.86;69.93
17593;BME280;8915;51.760;14.300;2023-06-10T05:12:08;100993.34;;;17.97;70.30
17593;BME280;8915;51.760;14.300;2023-06-10T05:14:35;101003.00;;;18.09;69.01
17593;BME280;8915;51.760;14.300;2023-06-10T05:17:01;101005.44;;;18.21;68.77
17593;BME280;8915;51.760;14.300;2023-06-10T05:19:27;101004.78;;;18.31;68.56
17593;BME280;8915;51.760;14.300;2023-06-10T05:21:55;101012.13;;;18.41;67.51
17593;BME280;8915;51.760;14.300;2023-06-10T05:24:21;101008.81;;;18.51;67.08
17593;BME280;8915;51.760;14.300;2023-06-10T05:26:48;101002.03;;;18.60;67.14
17593;BME280;8915;51.760;14.300;2023-06-10T05:29:14;101010.91;;;18.68;66.49
17593;BME280;8915;51.760;14.300;2023-06-10T05:31:41;101003.69;;;18.75;66.32
17593;BME280;8915;51.760;14.300;2023-06-10T05:34:07;101002.59;;;18.83;66.12
17593;BME280;8915;51.760;14.300;2023-06-10T05:36:34;101004.59;;;18.93;66.04
17593;BME280;8915;51.760;14.300;2023-06-10T05:39:02;101006.59;;;19.03;65.75
17593;BME280;8915;51.760;14.300;2023-06-10T05:41:30;101004.38;;;19.12;65.56
17593;BME280;8915;51.760;14.300;2023-06-10T05:43:56;101006.00;;;19.24;65.29
17593;BME280;8915;51.760;14.300;2023-06-10T05:46:23;101003.75;;;19.33;64.86
17593;BME280;8915;51.760;14.300;2023-06-10T05:48:49;101002.66;;;19.41;64.28
17593;BME280;8915;51.760;14.300;2023-06-10T05:51:15;101003.09;;;19.50;64.14
17593;BME280;8915;51.760;14.300;2023-06-10T05:53:42;101000.47;;;19.60;63.53
17593;BME280;8915;51.760;14.300;2023-06-10T05:56:10;100994.75;;;19.69;63.17
17593;BME280;8915;51.760;14.300;2023-06-10T05:58:36;100992.91;;;19.80;62.46
17593;BME280;8915;51.760;14.300;2023-06-10T06:01:02;101003.25;;;19.88;62.59
17593;BME280;8915;51.760;14.300;2023-06-10T06:03:29;101002.16;;;20.00;62.21
17593;BME280;8915;51.760;14.300;2023-06-10T06:05:55;100998.03;;;20.09;61.61
17593;BME280;8915;51.760;14.300;2023-06-10T06:08:21;101003.78;;;20.18;61.41
17593;BME280;8915;51.760;14.300;2023-06-10T06:10:49;101004.97;;;20.28;61.46
17593;BME280;8915;51.760;14.300;2023-06-10T06:13:25;101007.66;;;20.38;60.68
17593;BME280;8915;51.760;14.300;2023-06-10T06:15:51;101005.38;;;20.47;60.72
17593;BME280;8915;51.760;14.300;2023-06-10T06:18:17;101001.53;;;20.55;60.06
17593;BME280;8915;51.760;14.300;2023-06-10T06:20:44;101003.09;;;20.63;60.16
17593;BME280;8915;51.760;14.300;2023-06-10T06:23:10;101009.25;;;20.71;59.17
17593;BME280;8915;51.760;14.300;2023-06-10T06:25:37;101005.41;;;20.79;59.48
17593;BME280;8915;51.760;14.300;2023-06-10T06:28:04;101007.34;;;20.89;59.14
17593;BME280;8915;51.760;14.300;2023-06-10T06:30:32;101010.81;;;21.00;58.79
17593;BME280;8915;51.760;14.300;2023-06-10T06:32:58;101013.84;;;21.12;58.71
17593;BME280;8915;51.760;14.300;2023-06-10T06:35:24;101015.00;;;21.22;57.60
17593;BME280;8915;51.760;14.300;2023-06-10T06:37:51;101018.06;;;21.31;57.00
17593;BME280;8915;51.760;14.300;2023-06-10T06:40:22;101024.56;;;21.40;56.78
17593;BME280;8915;51.760;14.300;2023-06-10T06:42:49;101021.09;;;21.47;57.45
17593;BME280;8915;51.760;14.300;2023-06-10T06:45:22;101026.06;;;21.55;57.61
17593;BME280;8915;51.760;14.300;2023-06-10T06:47:49;101026.44;;;21.64;57.18
17593;BME280;8915;51.760;14.300;2023-06-10T06:50:16;101025.28;;;21.72;56.63
17593;BME280;8915;51.760;14.300;2023-06-10T06:52:42;101025.63;;;21.81;56.72
17593;BME280;8915;51.760;14.300;2023-06-10T06:55:09;101034.81;;;21.91;56.78
17593;BME280;8915;51.760;14.300;2023-06-10T06:57:37;101034.00;;;22.01;55.60
17593;BME280;8915;51.760;14.300;2023-06-10T07:00:05;101036.25;;;22.09;54.78
17593;BME280;8915;51.760;14.300;2023-06-10T07:02:34;101032.00;;;22.19;54.93
17593;BME280;8915;51.760;14.300;2023-06-10T07:05:01;101041.94;;;22.25;55.11
17593;BME280;8915;51.760;14.300;2023-06-10T07:07:28;101043.44;;;22.33;53.96
17593;BME280;8915;51.760;14.300;2023-06-10T07:09:55;101051.09;;;22.42;52.49
17593;BME280;8915;51.760;14.300;2023-06-10T07:12:21;101042.97;;;22.49;52.84
17593;BME280;8915;51.760;14.300;2023-06-10T07:14:49;101044.09;;;22.58;53.99
17593;BME280;8915;51.760;14.300;2023-06-10T07:17:15;101059.41;;;22.68;53.67
17593;BME280;8915;51.760;14.300;2023-06-10T07:19:43;101055.09;;;22.78;53.87
17593;BME280;8915;51.760;14.300;2023-06-10T07:22:11;101046.97;;;22.88;52.75
17593;BME280;8915;51.760;14.300;2023-06-10T07:24:37;101053.38;;;23.01;52.89
17593;BME280;8915;51.760;14.300;2023-06-10T07:27:04;101056.75;;;23.12;53.04
17593;BME280;8915;51.760;14.300;2023-06-10T07:29:30;101059.41;;;23.23;52.42
17593;BME280;8915;51.760;14.300;2023-06-10T07:31:57;101058.84;;;23.38;52.13
17593;BME280;8915;51.760;14.300;2023-06-10T07:34:23;101065.72;;;23.47;52.09
17593;BME280;8915;51.760;14.300;2023-06-10T07:36:50;101064.41;;;23.58;50.59
17593;BME280;8915;51.760;14.300;2023-06-10T07:39:17;101070.50;;;23.69;50.30
17593;BME280;8915;51.760;14.300;2023-06-10T07:41:44;101064.22;;;23.79;50.72
17593;BME280;8915;51.760;14.300;2023-06-10T07:44:10;101067.97;;;23.89;50.98
17593;BME280;8915;51.760;14.300;2023-06-10T07:46:37;101069.78;;;23.99;50.93
17593;BME280;8915;51.760;14.300;2023-06-10T07:49:03;101070.81;;;24.08;49.97
17593;BME280;8915;51.760;14.300;2023-06-10T07:51:29;101069.56;;;24.16;49.89
17593;BME280;8915;51.760;14.300;2023-06-10T07:53:56;101070.25;;;24.24;50.63
17593;BME280;8915;51.760;14.300;2023-06-10T07:56:23;101068.22;;;24.31;50.48
17593;BME280;8915;51.760;14.300;2023-06-10T07:58:51;101067.78;;;24.36;49.93
17593;BME280;8915;51.760;14.300;2023-06-10T08:01:22;101080.03;;;24.41;49.93
17593;BME280;8915;51.760;14.300;2023-06-10T08:03:48;101084.16;;;24.48;49.10
17593;BME280;8915;51.760;14.300;2023-06-10T08:06:15;101081.38;;;24.56;49.78
17593;BME280;8915;51.760;14.300;2023-06-10T08:08:42;101087.47;;;24.63;48.48
17593;BME280;8915;51.760;14.300;2023-06-10T08:11:09;101088.88;;;24.71;48.59
17593;BME280;8915;51.760;14.300;2023-06-10T08:13:38;101091.50;;;24.78;48.75
17593;BME280;8915;51.760;14.300;2023-06-10T08:16:05;101084.06;;;24.82;48.22
17593;BME280;8915;51.760;14.300;2023-06-10T08:18:31;101097.13;;;24.87;47.27
17593;BME280;8915;51.760;14.300;2023-06-10T08:20:57;101093.22;;;24.92;47.56
17593;BME280;8915;51.760;14.300;2023-06-10T08:23:24;101100.06;;;24.96;47.53
17593;BME280;8915;51.760;14.300;2023-06-10T08:25:50;101097.25;;;25.03;47.06
17593;BME280;8915;51.760;14.300;2023-06-10T08:28:18;101093.28;;;25.11;46.59
17593;BME280;8915;51.760;14.300;2023-06-10T08:30:46;101098.16;;;25.20;46.37
17593;BME280;8915;51.760;14.300;2023-06-10T08:33:12;101095.38;;;25.27;47.46
17593;BME280;8915;51.760;14.300;2023-06-10T08:35:38;101097.59;;;25.32;46.14
17593;BME280;8915;51.760;14.300;2023-06-10T08:38:05;101086.25;;;25.40;46.33
17593;BME280;8915;51.760;14.300;2023-06-10T08:40:32;101093.13;;;25.45;46.27
17593;BME280;8915;51.760;14.300;2023-06-10T08:43:05;101089.16;;;25.49;45.81
17593;BME280;8915;51.760;14.300;2023-06-10T08:45:35;101092.94;;;25.55;45.91
17593;BME280;8915;51.760;14.300;2023-06-10T08:48:04;101096.63;;;25.65;46.03
17593;BME280;8915;51.760;14.300;2023-06-10T08:50:34;101088.34;;;25.72;44.92
17593;BME280;8915;51.760;14.300;2023-06-10T08:53:04;101094.00;;;25.81;45.74
17593;BME280;8915;51.760;14.300;2023-06-10T08:55:32;101097.41;;;25.85;44.33
17593;BME280;8915;51.760;14.300;2023-06-10T08:58:00;101098.06;;;25.92;44.56
17593;BME280;8915;51.760;14.300;2023-06-10T09:00:28;101099.09;;;25.98;43.61
17593;BME280;8915;51.760;14.300;2023-06-10T09:02:58;101101.31;;;26.03;43.94
17593;BME280;8915;51.760;14.300;2023-06-10T09:05:27;101104.75;;;26.04;43.37
17593;BME280;8915;51.760;14.300;2023-06-10T09:07:56;101092.34;;;26.06;43.46
17593;BME280;8915;51.760;14.300;2023-06-10T09:10:23;101101.56;;;26.09;42.46
17593;BME280;8915;51.760;14.300;2023-06-10T09:12:50;101099.63;;;26.09;42.54
17593;BME280;8915;51.760;14.300;2023-06-10T09:15:17;101100.75;;;26.12;42.83
17593;BME280;8915;51.760;14.300;2023-06-10T09:17:43;101095.25;;;26.15;42.90
17593;BME280;8915;51.760;14.300;2023-06-10T09:20:10;101092.53;;;26.15;42.14
17593;BME280;8915;51.760;14.300;2023-06-10T09:22:38;101088.94;;;26.22;42.40
17593;BME280;8915;51.760;14.300;2023-06-10T09:25:06;101086.16;;;26.25;42.79
17593;BME280;8915;51.760;14.300;2023-06-10T09:27:43;101088.69;;;26.32;42.22
17593;BME280;8915;51.760;14.300;2023-06-10T09:30:11;101081.97;;;26.40;41.29
17593;BME280;8915;51.760;14.300;2023-06-10T09:32:49;101087.56;;;26.49;42.29
17593;BME280;8915;51.760;14.300;2023-06-10T09:35:16;101083.25;;;26.52;40.74
17593;BME280;8915;51.760;14.300;2023-06-10T09:37:44;101089.72;;;26.58;40.08
17593;BME280;8915;51.760;14.300;2023-06-10T09:40:11;101084.91;;;26.65;39.04
17593;BME280;8915;51.760;14.300;2023-06-10T09:42:38;101082.88;;;26.69;39.58
17593;BME280;8915;51.760;14.300;2023-06-10T09:45:06;101080.09;;;26.73;40.62
17593;BME280;8915;51.760;14.300;2023-06-10T09:47:33;101085.41;;;26.76;40.24
17593;BME280;8915;51.760;14.300;2023-06-10T09:49:59;101084.59;;;26.79;39.07
17593;BME280;8915;51.760;14.300;2023-06-10T09:52:28;101081.78;;;26.83;37.70
17593;BME280;8915;51.760;14.300;2023-06-10T09:55:01;101083.22;;;26.87;39.77
17593;BME280;8915;51.760;14.300;2023-06-10T09:57:31;101078.06;;;26.93;39.23
17593;BME280;8915;51.760;14.300;2023-06-10T09:59:59;101081.38;;;27.00;39.72
17593;BME280;8915;51.760;14.300;2023-06-10T10:02:25;101078.16;;;27.05;38.62
17593;BME280;8915;51.760;14.300;2023-06-10T10:04:51;101087.63;;;27.13;38.72
17593;BME280;8915;51.760;14.300;2023-06-10T10:07:18;101087.47;;;27.20;38.96
17593;BME280;8915;51.760;14.300;2023-06-10T10:09:45;101085.41;;;27.24;36.73
17593;BME280;8915;51.760;14.300;2023-06-10T10:12:15;101079.06;;;27.31;38.40
17593;BME280;8915;51.760;14.300;2023-06-10T10:14:46;101076.16;;;27.38;38.69
17593;BME280;8915;51.760;14.300;2023-06-10T10:17:15;101069.78;;;27.44;36.10
17593;BME280;8915;51.760;14.300;2023-06-10T10:19:46;101067.22;;;27.53;38.01
17593;BME280;8915;51.760;14.300;2023-06-10T10:22:16;101076.69;;;27.61;36.74
17593;BME280;8915;51.760;14.300;2023-06-10T10:24:49;101070.97;;;27.72;36.64
17593;BME280;8915;51.760;14.300;2023-06-10T10:27:20;101057.00;;;27.73;35.90
17593;BME280;8915;51.760;14.300;2023-06-10T10:29:51;101062.56;;;27.82;36.89
17593;BME280;8915;51.760;14.300;2023-06-10T10:32:25;101064.31;;;27.89;36.59
17593;BME280;8915;51.760;14.300;2023-06-10T10:34:58;101057.94;;;27.95;36.68
17593;BME280;8915;51.760;14.300;2023-06-10T10:37:28;101056.63;;;28.00;36.49
17593;BME280;8915;51.760;14.300;2023-06-10T10:39:54;101049.91;;;28.04;34.58
17593;BME280;8915;51.760;14.300;2023-06-10T10:42:23;101049.81;;;28.08;35.73
17593;BME280;8915;51.760;14.300;2023-06-10T10:44:50;101052.41;;;28.11;35.28
17593;BME280;8915;51.760;14.300;2023-06-10T10:47:19;101040.25;;;28.16;34.35
17593;BME280;8915;51.760;14.300;2023-06-10T10:49:48;101047.78;;;28.24;33.92
17593;BME280;8915;51.760;14.300;2023-06-10T10:52:16;101035.59;;;28.29;33.45
17593;BME280;8915;51.760;14.300;2023-06-10T10:54:44;101045.03;;;28.37;34.84
17593;BME280;8915;51.760;14.300;2023-06-10T10:57:13;101039.00;;;28.45;35.18
17593;BME280;8915;51.760;14.300;2023-06-10T11:02:50;101041.38;;;28.56;33.28
17593;BME280;8915;51.760;14.300;2023-06-10T11:05:31;101038.00;;;28.64;33.48
17593;BME280;8915;51.760;14.300;2023-06-10T11:07:58;101048.00;;;28.67;32.26
17593;BME280;8915;51.760;14.300;2023-06-10T11:10:29;101044.19;;;28.65;34.04
17593;BME280;8915;51.760;14.300;2023-06-10T11:12:57;101037.25;;;28.64;30.91
17593;BME280;8915;51.760;14.300;2023-06-10T11:15:26;101043.22;;;28.71;32.06
17593;BME280;8915;51.760;14.300;2023-06-10T11:18:08;101030.91;;;28.79;33.44
17593;BME280;8915;51.760;14.300;2023-06-10T11:20:55;101033.41;;;28.86;32.43
17593;BME280;8915;51.760;14.300;2023-06-10T11:23:38;101032.63;;;28.98;33.08
17593;BME280;8915;51.760;14.300;2023-06-10T11:26:29;101027.94;;;28.99;31.58
17593;BME280;8915;51.760;14.300;2023-06-10T11:29:05;101021.31;;;29.00;31.46
17593;BME280;8915;51.760;14.300;2023-06-10T11:31:39;101012.25;;;29.03;32.36
17593;BME280;8915;51.760;14.300;2023-06-10T11:34:06;101018.34;;;29.07;31.27
17593;BME280;8915;51.760;14.300;2023-06-10T11:36:39;101016.34;;;29.20;32.36
17593;BME280;8915;51.760;14.300;2023-06-10T11:39:11;101000.41;;;29.31;32.75
17593;BME280;8915;51.760;14.300;2023-06-10T11:41:39;100992.50;;;29.45;31.39
17593;BME280;8915;51.760;14.300;2023-06-10T11:44:08;100998.72;;;29.67;31.47
17593;BME280;8915;51.760;14.300;2023-06-10T11:46:36;100996.84;;;29.86;30.54
17593;BME280;8915;51.760;14.300;2023-06-10T11:49:04;101007.97;;;30.00;29.60
17593;BME280;8915;51.760;14.300;2023-06-10T11:51:34;101006.19;;;30.06;28.94
17593;BME280;8915;51.760;14.300;2023-06-10T11:54:01;101008.47;;;30.08;25.83
17593;BME280;8915;51.760;14.300;2023-06-10T11:56:29;101001.19;;;30.05;27.42
17593;BME280;8915;51.760;14.300;2023-06-10T11:58:57;101009.03;;;30.03;28.86
17593;BME280;8915;51.760;14.300;2023-06-10T12:01:26;101011.38;;;29.92;27.88
17593;BME280;8915;51.760;14.300;2023-06-10T12:04:01;101014.59;;;29.90;27.60
17593;BME280;8915;51.760;14.300;2023-06-10T12:06:38;101018.97;;;29.88;27.76
17593;BME280;8915;51.760;14.300;2023-06-10T12:09:04;101019.69;;;29.88;27.98
17593;BME280;8915;51.760;14.300;2023-06-10T12:11:31;101012.59;;;29.91;27.82
17593;BME280;8915;51.760;14.300;2023-06-10T12:13:57;101030.44;;;29.92;27.68
17593;BME280;8915;51.760;14.300;2023-06-10T12:16:24;101026.22;;;29.91;28.52
17593;BME280;8915;51.760;14.300;2023-06-10T12:18:50;101019.75;;;29.67;29.94
17593;BME280;8915;51.760;14.300;2023-06-10T12:21:19;101018.25;;;29.53;30.06
17593;BME280;8915;51.760;14.300;2023-06-10T12:24:03;101015.66;;;29.50;30.64
17593;BME280;8915;51.760;14.300;2023-06-10T12:26:43;101026.22;;;29.48;31.12
17593;BME280;8915;51.760;14.300;2023-06-10T12:29:21;101022.31;;;29.49;30.85
17593;BME280;8915;51.760;14.300;2023-06-10T12:31:56;101018.50;;;29.46;30.88
17593;BME280;8915;51.760;14.300;2023-06-10T12:34:33;101023.00;;;29.40;30.88
17593;BME280;8915;51.760;14.300;2023-06-10T12:37:01;101022.63;;;29.29;31.31
17593;BME280;8915;51.760;14.300;2023-06-10T12:39:28;101027.69;;;29.18;32.06
17593;BME280;8915;51.760;14.300;2023-06-10T12:41:54;101038.91;;;28.95;34.81
17593;BME280;8915;51.760;14.300;2023-06-10T12:44:31;101033.34;;;28.52;37.13
17593;BME280;8915;51.760;14.300;2023-06-10T12:46:58;101036.34;;;28.17;36.96
17593;BME280;8915;51.760;14.300;2023-06-10T12:49:24;101033.53;;;27.67;37.52
17593;BME280;8915;51.760;14.300;2023-06-10T12:51:51;101031.34;;;27.33;37.79
17593;BME280;8915;51.760;14.300;2023-06-10T12:54:19;101041.88;;;26.99;37.96
17593;BME280;8915;51.760;14.300;2023-06-10T12:56:45;101030.53;;;26.72;38.31
17593;BME280;8915;51.760;14.300;2023-06-10T12:59:14;101029.59;;;26.47;38.48